Time;durP1;ratioP1;P1;durP2;ratioP2;P2;SDS_P1;SDS_P2;PMS_P1;PMS_P2;Temp;Humidity;BMP_temperature;BMP_pressure;BME280_temperature;BME280_humidity;BME280_pressure;Samples;Min_cycle;Max_cycle;Signal;HPM_P1;HPM_P2
2023/04/15 00:01:04;;;;;;;;;16.25;14.75;;;;;10.14;77.27;99867.34;4957225;28;45517;-61
2023/04/15 00:03:30;;;;;;;;;15.75;14.50;;;;;10.12;77.37;99864.81;4956194;28;45425;-60
2023/04/15 00:05:57;;;;;;;;;16.25;15.00;;;;;10.14;76.29;99861.84;4959668;28;46798;-62
2023/04/15 00:08:22;;;;;;;;;20.40;17.80;;;;;9.86;77.25;99806.50;4976595;28;45490;-62
2023/04/15 00:10:48;;;;;;;;;17.00;14.50;;;;;10.13;77.46;99855.53;4976357;28;45449;-61
2023/04/15 00:13:14;;;;;;;;;19.25;18.00;;;;;10.09;77.64;99846.06;4973986;28;45444;-61
2023/04/15 00:15:39;;;;;;;;;19.00;16.50;;;;;10.14;76.95;99848.16;4936268;28;45374;-61
2023/04/15 00:18:06;;;;;;;;;13.50;12.25;;;;;10.16;77.06;99841.34;4952870;28;45332;-62
2023/04/15 00:20:33;;;;;;;;;19.40;16.60;;;;;10.17;76.50;99828.47;4956032;28;45458;-62
2023/04/15 00:22:59;;;;;;;;;17.60;14.00;;;;;10.17;76.62;99832.06;4957559;28;45458;-61
2023/04/15 00:25:25;;;;;;;;;14.60;14.60;;;;;10.16;76.69;99830.38;4956855;28;45457;-61
2023/04/15 00:27:50;;;;;;;;;16.50;14.75;;;;;10.11;77.15;99821.16;4956354;28;45484;-62
2023/04/15 00:30:15;;;;;;;;;13.25;13.25;;;;;10.10;77.16;99824.97;4958740;28;45377;-62
2023/04/15 00:32:41;;;;;;;;;17.25;14.50;;;;;10.11;76.64;99826.66;4957791;28;45247;-61
2023/04/15 00:35:07;;;;;;;;;14.50;13.50;;;;;10.07;77.32;99823.53;4956661;28;46786;-62
2023/04/15 00:37:34;;;;;;;;;19.20;15.60;;;;;9.87;76.95;99786.25;4955275;28;45576;-61
2023/04/15 00:40:00;;;;;;;;;14.20;13.20;;;;;9.73;77.21;99779.28;4939712;28;45454;-60
2023/04/15 00:42:25;;;;;;;;;18.00;13.40;;;;;10.00;78.30;99818.16;4955566;28;45496;-61
2023/04/15 00:44:51;;;;;;;;;13.00;11.00;;;;;10.03;77.51;99820.44;4939166;28;46148;-61
2023/04/15 00:47:16;;;;;;;;;19.00;14.00;;;;;9.96;77.47;99797.75;4955753;28;45406;-62
2023/04/15 00:49:42;;;;;;;;;15.50;14.25;;;;;9.99;77.96;99797.28;4939638;28;45373;-61
2023/04/15 00:52:07;;;;;;;;;18.25;16.75;;;;;10.01;77.59;99794.31;4956738;28;45619;-61
2023/04/15 00:54:33;;;;;;;;;21.75;16.50;;;;;10.07;78.13;99807.09;4955255;28;45712;-61
2023/04/15 00:56:59;;;;;;;;;20.75;15.00;;;;;10.10;78.16;99803.06;4955321;28;45344;-62
2023/04/15 00:59:25;;;;;;;;;16.40;14.20;;;;;9.89;78.03;99781.38;4956622;28;45339;-61
2023/04/15 01:01:51;;;;;;;;;18.50;13.75;;;;;10.03;78.43;99803.97;4956090;28;45947;-62
2023/04/15 01:04:16;;;;;;;;;14.00;14.00;;;;;10.06;79.10;99797.19;4955431;28;46441;-62
2023/04/15 01:06:42;;;;;;;;;17.75;15.25;;;;;10.04;79.06;99789.19;4960193;28;45971;-62
2023/04/15 01:09:07;;;;;;;;;20.25;15.00;;;;;10.08;78.33;99797.78;4975828;28;45433;-61
2023/04/15 01:11:33;;;;;;;;;15.25;13.50;;;;;10.09;78.74;99802.19;4959343;28;45369;-61
2023/04/15 01:13:58;;;;;;;;;17.00;16.50;;;;;9.84;79.08;99764.81;4975774;28;45707;-61
2023/04/15 01:16:24;;;;;;;;;11.50;11.25;;;;;10.09;79.26;99801.38;4958755;28;45413;-62
2023/04/15 01:18:50;;;;;;;;;18.00;14.75;;;;;9.90;79.08;99768.53;4958797;28;45228;-62
2023/04/15 01:21:17;;;;;;;;;18.20;17.20;;;;;10.03;80.17;99801.22;4976624;28;46067;-62
2023/04/15 01:23:42;;;;;;;;;13.80;10.80;;;;;9.89;79.32;99764.94;4976045;28;45339;-62
2023/04/15 01:26:08;;;;;;;;;13.50;12.75;;;;;9.98;79.40;99783.81;4958335;28;46088;-61
2023/04/15 01:28:34;;;;;;;;;13.50;10.25;;;;;9.98;79.52;99772.84;4974585;28;45413;-62
2023/04/15 01:31:12;;;;;;;;;16.40;14.60;;;;;10.04;79.92;99780.97;4974480;28;45582;-62
2023/04/15 01:33:39;;;;;;;;;12.60;12.40;;;;;10.00;79.57;99776.19;4943167;28;48461;-62
2023/04/15 01:36:05;;;;;;;;;15.40;14.00;;;;;9.98;79.85;99773.66;4935650;28;45359;-61
2023/04/15 01:38:32;;;;;;;;;13.60;13.60;;;;;9.96;80.14;99770.34;4954650;28;45359;-61
2023/04/15 01:40:58;;;;;;;;;12.40;12.40;;;;;9.97;80.24;99782.97;4955945;28;45331;-62
2023/04/15 01:43:24;;;;;;;;;14.00;14.00;;;;;9.83;80.30;99765.03;4954393;28;45451;-61
2023/04/15 01:45:50;;;;;;;;;18.00;14.60;;;;;9.96;80.90;99786.78;4955740;28;45461;-62
2023/04/15 01:48:15;;;;;;;;;13.75;13.50;;;;;9.95;80.53;99787.00;4954614;28;45307;-60
2023/04/15 01:50:42;;;;;;;;;17.25;15.50;;;;;9.86;80.72;99772.78;4955965;28;45321;-60
2023/04/15 01:53:07;;;;;;;;;13.20;13.20;;;;;10.00;81.16;99793.50;4938157;28;48007;-61
2023/04/15 01:55:33;;;;;;;;;13.75;12.75;;;;;9.85;80.50;99766.47;4955363;28;45349;-61
2023/04/15 01:57:58;;;;;;;;;14.25;14.25;;;;;9.95;81.41;99798.81;4954298;28;45415;-60
2023/04/15 02:00:24;;;;;;;;;14.25;13.75;;;;;9.93;80.97;99786.41;4954420;28;45452;-62
2023/04/15 02:02:50;;;;;;;;;14.00;12.75;;;;;10.00;80.87;99803.59;4955322;28;47010;-60
2023/04/15 02:05:15;;;;;;;;;8.75;7.75;;;;;9.94;81.56;99796.31;4954471;28;45260;-61
2023/04/15 02:07:42;;;;;;;;;8.25;8.25;;;;;10.00;81.64;99806.34;4965606;28;45323;-60
2023/04/15 02:10:09;;;;;;;;;8.00;7.00;;;;;9.84;81.63;99784.00;4975511;28;45220;-60
2023/04/15 02:12:34;;;;;;;;;9.60;8.20;;;;;9.77;80.77;99773.09;4975298;28;46191;-60
2023/04/15 02:15:00;;;;;;;;;14.75;9.50;;;;;10.00;80.74;99809.09;4974822;28;45395;-61
2023/04/15 02:17:25;;;;;;;;;8.00;8.00;;;;;10.03;81.24;99806.72;4975385;28;45493;-60
2023/04/15 02:19:51;;;;;;;;;8.00;8.00;;;;;10.06;80.66;99813.66;4974049;28;45303;-61
2023/04/15 02:22:17;;;;;;;;;10.25;6.00;;;;;10.02;81.24;99801.47;4976327;28;46390;-61
2023/04/15 02:24:42;;;;;;;;;7.60;6.40;;;;;10.06;81.66;99813.66;4978282;28;45366;-61
2023/04/15 02:27:08;;;;;;;;;6.75;6.75;;;;;9.93;81.11;99795.44;4977312;28;45292;-61
2023/04/15 02:29:33;;;;;;;;;7.25;7.25;;;;;10.05;81.75;99822.94;4978683;28;45330;-61
2023/04/15 02:31:59;;;;;;;;;5.50;4.50;;;;;10.09;81.83;99818.66;4978047;28;46511;-62
2023/04/15 02:34:26;;;;;;;;;3.75;3.75;;;;;10.10;80.58;99824.97;4978361;28;45371;-62
2023/04/15 02:36:56;;;;;;;;;8.40;7.20;;;;;10.07;81.12;99828.19;4960926;28;45264;-61
2023/04/15 02:39:21;;;;;;;;;8.00;8.00;;;;;10.08;81.33;99827.13;4978526;28;45327;-65
2023/04/15 02:41:50;;;;;;;;;10.00;7.50;;;;;10.05;81.92;99833.91;4976514;28;46356;-60
2023/04/15 02:44:19;;;;;;;;;8.00;8.00;;;;;9.81;81.51;99805.53;4976512;28;45285;-60
2023/04/15 02:46:51;;;;;;;;;7.60;7.40;;;;;9.97;82.36;99837.78;4978201;28;45518;-61
2023/04/15 02:49:16;;;;;;;;;9.60;9.00;;;;;9.93;81.80;99839.31;4978122;28;45392;-62
2023/04/15 02:51:42;;;;;;;;;8.50;7.00;;;;;9.96;81.97;99852.56;4976797;28;45366;-61
2023/04/15 02:54:08;;;;;;;;;12.25;11.75;;;;;9.76;81.82;99819.91;4976536;28;45564;-61
2023/04/15 02:56:33;;;;;;;;;12.25;10.25;;;;;9.80;82.59;99839.47;4978248;28;45385;-61
2023/04/15 02:58:59;;;;;;;;;14.00;12.75;;;;;9.96;82.03;99874.50;4977811;28;45329;-61
2023/04/15 03:01:25;;;;;;;;;12.25;11.00;;;;;9.93;81.94;99863.97;4977973;28;46267;-62
2023/04/15 03:03:50;;;;;;;;;14.80;12.80;;;;;9.89;81.99;99857.31;4977823;28;45379;-60
2023/04/15 03:06:16;;;;;;;;;15.00;11.75;;;;;9.96;82.42;99866.28;4976309;28;45416;-61
2023/04/15 03:08:41;;;;;;;;;15.75;12.50;;;;;9.74;81.89;99855.78;4960144;28;45338;-60
2023/04/15 03:11:07;;;;;;;;;13.25;13.25;;;;;9.95;82.14;99886.53;4958010;28;46075;-60
2023/04/15 03:13:32;;;;;;;;;20.25;13.75;;;;;9.98;82.71;99886.06;4957013;28;45463;-61
2023/04/15 03:15:58;;;;;;;;;9.75;7.50;;;;;9.84;82.18;99857.16;4958452;28;45664;-61
2023/04/15 03:18:23;;;;;;;;;14.25;11.00;;;;;9.95;81.73;99878.31;4957265;28;45706;-61
2023/04/15 03:20:49;;;;;;;;;15.75;12.75;;;;;9.93;81.81;99887.84;4956818;28;45371;-61
2023/04/15 03:23:15;;;;;;;;;15.75;13.00;;;;;9.61;82.08;99845.78;4956537;28;45365;-61
2023/04/15 03:25:41;;;;;;;;;12.25;10.50;;;;;9.98;81.58;99909.91;4927373;28;45780;-61
2023/04/15 03:28:06;;;;;;;;;10.25;9.50;;;;;9.79;81.75;99879.75;4940730;28;45737;-61
2023/04/15 03:30:32;;;;;;;;;9.25;8.00;;;;;9.95;80.94;99907.63;4956516;28;46234;-61
2023/04/15 03:32:57;;;;;;;;;9.25;8.50;;;;;9.94;81.76;99909.53;4955781;28;45259;-63
2023/04/15 03:35:23;;;;;;;;;8.00;7.00;;;;;9.93;80.49;99915.25;4957879;28;45375;-62
2023/04/15 03:37:48;;;;;;;;;6.25;6.25;;;;;9.88;81.08;99915.94;4958321;28;45640;-62
2023/04/15 03:40:14;;;;;;;;;6.25;6.25;;;;;9.82;80.38;99903.97;4955832;28;47883;-62
2023/04/15 03:42:40;;;;;;;;;9.60;7.60;;;;;9.86;80.61;99923.53;4958141;28;45324;-61
2023/04/15 03:45:06;;;;;;;;;1.75;1.75;;;;;9.87;81.18;99931.53;4956642;28;45358;-61
2023/04/15 03:47:32;;;;;;;;;7.20;6.20;;;;;9.87;80.86;99931.53;4958017;28;45378;-61
2023/04/15 03:49:57;;;;;;;;;6.25;6.25;;;;;9.85;80.17;99927.34;4957496;28;46170;-60
2023/04/15 03:52:23;;;;;;;;;8.00;7.25;;;;;9.80;80.75;99924.44;4956885;28;45335;-61
2023/04/15 03:54:48;;;;;;;;;7.00;5.75;;;;;9.77;80.67;99923.00;4958009;28;45352;-61
2023/04/15 03:57:14;;;;;;;;;5.50;4.00;;;;;9.79;80.71;99934.56;4958230;28;45280;-61
2023/04/15 03:59:39;;;;;;;;;3.00;3.00;;;;;9.73;80.49;99943.69;4938472;28;45950;-61
2023/04/15 04:02:05;;;;;;;;;3.00;3.00;;;;;9.73;80.83;99946.44;4972624;28;45664;-61
2023/04/15 04:04:30;;;;;;;;;2.75;2.75;;;;;9.65;80.30;99944.00;4956405;28;45349;-61
2023/04/15 04:06:56;;;;;;;;;2.75;1.50;;;;;9.66;80.43;99945.66;4958558;28;45408;-61
2023/04/15 04:09:21;;;;;;;;;2.00;2.00;;;;;9.61;80.67;99943.59;4975505;28;47284;-60
2023/04/15 04:11:47;;;;;;;;;2.50;2.00;;;;;9.57;81.07;99940.47;4960435;28;45344;-60
2023/04/15 04:14:12;;;;;;;;;2.50;2.50;;;;;9.63;81.11;99952.44;4957846;28;45324;-60
2023/04/15 04:16:38;;;;;;;;;3.75;3.75;;;;;9.60;81.10;99953.72;4940644;28;45253;-60
2023/04/15 04:19:03;;;;;;;;;3.00;2.00;;;;;9.60;81.18;99956.47;4957367;28;46631;-62
2023/04/15 04:21:28;;;;;;;;;3.50;3.50;;;;;9.58;80.57;99964.06;4955696;28;45424;-61
2023/04/15 04:23:55;;;;;;;;;3.00;2.00;;;;;9.56;81.26;99963.44;4956122;28;45436;-61
2023/04/15 04:26:21;;;;;;;;;2.20;2.20;;;;;9.57;80.40;99965.13;4957531;28;45531;-61
2023/04/15 04:28:47;;;;;;;;;2.40;2.40;;;;;9.33;80.23;99937.53;4957213;28;46651;-61
2023/04/15 04:31:12;;;;;;;;;2.00;2.00;;;;;9.57;80.78;99972.50;4957702;28;45398;-60
2023/04/15 04:33:38;;;;;;;;;2.50;2.50;;;;;9.57;80.65;99981.56;4955774;28;45417;-60
2023/04/15 04:36:04;;;;;;;;;2.00;2.00;;;;;9.33;80.30;99948.47;4957479;28;45398;-62
2023/04/15 04:38:30;;;;;;;;;2.80;2.80;;;;;9.54;80.03;99976.53;4955705;28;47735;-62
2023/04/15 04:40:55;;;;;;;;;2.50;2.50;;;;;9.08;80.54;99919.16;4971409;28;45272;-62
2023/04/15 04:43:21;;;;;;;;;3.75;3.75;;;;;9.38;79.86;99961.50;4957054;28;45379;-62
2023/04/15 04:45:46;;;;;;;;;1.75;1.75;;;;;9.50;80.48;99994.47;4971176;28;45185;-62
2023/04/15 04:48:12;;;;;;;;;3.75;3.75;;;;;9.43;80.36;99983.56;4956917;28;45837;-61
2023/04/15 04:50:37;;;;;;;;;2.00;2.00;;;;;9.51;81.16;99998.06;4956721;28;45209;-61
2023/04/15 04:53:02;;;;;;;;;2.00;2.00;;;;;9.52;80.81;100000.56;4972072;28;45351;-62
2023/04/15 04:55:28;;;;;;;;;0.25;0.25;;;;;9.47;80.45;100005.88;4957112;28;45210;-62
2023/04/15 04:57:53;;;;;;;;;1.00;1.00;;;;;9.47;80.02;100014.94;4956513;28;45987;-62
2023/04/15 05:00:19;;;;;;;;;1.00;0.00;;;;;9.51;80.30;100009.88;4956851;28;45360;-61
2023/04/15 05:02:45;;;;;;;;;2.00;2.00;;;;;9.49;80.03;100006.47;4956844;28;45399;-60
2023/04/15 05:05:10;;;;;;;;;2.50;1.00;;;;;9.35;80.37;99997.56;4957014;28;45319;-61
2023/04/15 05:07:37;;;;;;;;;3.50;3.50;;;;;9.53;79.14;100023.31;4959400;28;45408;-62
2023/04/15 05:10:03;;;;;;;;;1.00;1.00;;;;;9.54;79.87;100028.56;4975821;28;45465;-62
2023/04/15 05:12:28;;;;;;;;;0.00;0.00;;;;;9.43;79.92;100027.41;4976447;28;45299;-61
2023/04/15 05:14:54;;;;;;;;;1.00;0.00;;;;;9.52;79.27;100040.81;4976588;28;45834;-61
2023/04/15 05:17:19;;;;;;;;;2.00;2.00;;;;;9.52;79.73;100049.88;4975055;28;46020;-62
2023/04/15 05:19:45;;;;;;;;;0.75;0.75;;;;;9.36;80.76;100034.81;4974681;28;45306;-61
2023/04/15 05:22:10;;;;;;;;;0.50;0.50;;;;;9.47;80.01;100058.78;4976180;28;45415;-61
2023/04/15 05:24:35;;;;;;;;;1.25;1.00;;;;;9.46;80.36;100059.00;4975540;28;45364;-62
2023/04/15 05:27:01;;;;;;;;;1.25;1.00;;;;;9.36;80.42;100045.78;4975490;28;45389;-61
2023/04/15 05:29:27;;;;;;;;;1.50;1.00;;;;;9.49;80.57;100069.50;4975969;28;45315;-61
2023/04/15 05:31:52;;;;;;;;;1.00;1.00;;;;;9.52;79.74;100085.50;4974396;28;45447;-62
2023/04/15 05:34:17;;;;;;;;;0.25;0.25;;;;;9.44;80.37;100089.34;4975576;28;45335;-60
2023/04/15 05:36:43;;;;;;;;;1.00;1.00;;;;;9.30;79.87;100069.44;4975303;28;46104;-61
2023/04/15 05:39:09;;;;;;;;;0.00;0.00;;;;;9.46;80.17;100098.16;4974384;28;45361;-61
2023/04/15 05:41:34;;;;;;;;;0.00;0.00;;;;;9.43;79.41;100093.13;4974027;28;45326;-62
2023/04/15 05:44:00;;;;;;;;;1.00;1.00;;;;;9.47;79.67;100096.28;4974316;28;45707;-62
2023/04/15 05:46:26;;;;;;;;;1.00;1.00;;;;;9.48;80.51;100112.50;4975197;28;45484;-62
2023/04/15 05:48:51;;;;;;;;;1.00;1.00;;;;;9.43;80.10;100103.25;4975391;28;45439;-62
2023/04/15 05:51:17;;;;;;;;;2.25;1.00;;;;;9.32;81.07;100088.34;4973921;28;45495;-62
2023/04/15 05:53:43;;;;;;;;;2.75;1.00;;;;;9.35;80.17;100093.41;4975931;28;45628;-62
2023/04/15 05:56:08;;;;;;;;;1.00;1.00;;;;;9.52;80.00;100123.00;4934934;28;47966;-61
2023/04/15 05:58:34;;;;;;;;;1.00;1.00;;;;;9.56;80.40;100127.81;4955687;28;45357;-62
2023/04/15 06:01:00;;;;;;;;;1.60;1.00;;;;;9.55;80.45;100142.56;4955876;28;45369;-60
2023/04/15 06:03:25;;;;;;;;;1.00;1.00;;;;;9.54;80.37;100143.66;4954795;28;45321;-63
2023/04/15 06:05:51;;;;;;;;;0.00;0.00;;;;;9.30;79.79;100115.97;4955775;28;45804;-61
2023/04/15 06:08:16;;;;;;;;;1.00;1.00;;;;;9.53;80.44;100149.34;4955187;28;45244;-61
2023/04/15 06:10:42;;;;;;;;;0.00;0.00;;;;;9.52;80.87;100164.94;4955908;28;45297;-61
2023/04/15 06:13:07;;;;;;;;;0.75;0.75;;;;;9.53;79.72;100158.41;4956174;28;45517;-61
2023/04/15 06:15:33;;;;;;;;;1.00;1.00;;;;;9.34;80.21;100130.91;4970750;28;46499;-63
2023/04/15 06:17:58;;;;;;;;;1.00;1.00;;;;;9.53;80.62;100174.00;4954333;28;45674;-60
2023/04/15 06:20:24;;;;;;;;;1.00;1.00;;;;;9.51;79.86;100173.38;4957181;28;45226;-60
2023/04/15 06:22:50;;;;;;;;;0.50;0.50;;;;;9.28;79.94;100144.66;4957096;28;45327;-61
2023/04/15 06:25:15;;;;;;;;;1.00;1.00;;;;;9.54;79.87;100192.97;4955322;28;46212;-61
2023/04/15 06:27:41;;;;;;;;;1.00;1.00;;;;;9.54;79.69;100200.34;4953924;28;45409;-61
2023/04/15 06:30:07;;;;;;;;;0.75;0.75;;;;;9.54;79.54;100201.19;4955172;28;45410;-61
2023/04/15 06:32:32;;;;;;;;;1.00;1.00;;;;;9.55;79.37;100207.50;4955814;28;45407;-60
2023/04/15 06:34:58;;;;;;;;;1.00;1.00;;;;;9.37;79.27;100187.13;4955190;28;45991;-60
2023/04/15 06:37:23;;;;;;;;;2.00;2.00;;;;;9.30;79.70;100183.59;4954886;28;45442;-60
2023/04/15 06:39:49;;;;;;;;;1.00;1.00;;;;;9.38;80.04;100207.16;4917104;28;45425;-61
2023/04/15 06:42:15;;;;;;;;;1.00;1.00;;;;;9.45;79.64;100238.94;4953171;28;46159;-60
2023/04/15 06:44:40;;;;;;;;;0.00;0.00;;;;;9.48;79.36;100240.41;4953400;28;46791;-63
2023/04/15 06:47:06;;;;;;;;;0.00;0.00;;;;;9.31;79.76;100226.34;4960072;28;45459;-62
2023/04/15 06:49:32;;;;;;;;;2.00;1.00;;;;;9.44;79.76;100261.09;4955070;28;45483;-62
2023/04/15 06:51:59;;;;;;;;;0.00;0.00;;;;;9.42;80.38;100254.97;4952169;28;45651;-61
2023/04/15 06:54:25;;;;;;;;;0.80;0.80;;;;;9.28;79.94;100243.22;4954396;28;46301;-61
2023/04/15 06:56:51;;;;;;;;;1.00;1.00;;;;;9.29;80.15;100248.47;4937612;28;45480;-62
2023/04/15 06:59:17;;;;;;;;;1.00;1.00;;;;;9.39;80.09;100261.72;4943406;28;45372;-62
2023/04/15 07:01:42;;;;;;;;;1.25;1.00;;;;;9.45;80.04;100281.94;4955064;28;45284;-62
2023/04/15 07:04:08;;;;;;;;;3.75;1.50;;;;;9.48;80.31;100284.22;4937859;28;46183;-62
2023/04/15 07:06:34;;;;;;;;;1.75;1.00;;;;;9.48;80.01;100287.81;4954950;28;45276;-61
2023/04/15 07:09:00;;;;;;;;;1.40;1.40;;;;;9.50;80.19;100295.81;4969321;28;45296;-62
2023/04/15 07:11:26;;;;;;;;;1.20;1.20;;;;;9.47;80.09;100305.31;4976634;28;45591;-60
2023/04/15 07:13:51;;;;;;;;;1.00;1.00;;;;;9.48;80.78;100303.41;4978096;28;46430;-61
2023/04/15 07:16:17;;;;;;;;;1.00;1.00;;;;;9.50;80.69;100312.25;4977677;28;45355;-62
2023/04/15 07:18:42;;;;;;;;;1.00;1.00;;;;;9.49;80.46;100305.09;4976581;28;45313;-63
2023/04/15 07:21:08;;;;;;;;;2.75;1.50;;;;;9.47;81.56;100321.75;4975319;28;45644;-63
2023/04/15 07:23:33;;;;;;;;;2.00;0.25;;;;;9.50;80.61;100323.19;4977798;28;45191;-61
2023/04/15 07:25:59;;;;;;;;;1.50;1.50;;;;;9.43;81.11;100315.00;4976082;28;45423;-59
2023/04/15 07:28:25;;;;;;;;;1.00;1.00;;;;;9.36;81.64;100304.06;4939054;28;45523;-62
2023/04/15 07:30:51;;;;;;;;;1.50;1.50;;;;;9.43;81.19;100315.00;4950655;28;45426;-62
2023/04/15 07:33:16;;;;;;;;;1.00;1.00;;;;;9.41;81.69;100316.28;4953382;28;46577;-61
2023/04/15 07:35:42;;;;;;;;;1.75;1.00;;;;;9.56;80.79;100340.69;4955209;28;45414;-64
2023/04/15 07:38:08;;;;;;;;;1.00;1.00;;;;;9.49;81.45;100352.50;4933120;28;45952;-60
2023/04/15 07:40:33;;;;;;;;;4.00;3.00;;;;;9.48;80.92;100348.09;4951238;28;45752;-62
2023/04/15 07:42:59;;;;;;;;;3.75;2.00;;;;;9.49;81.59;100357.13;4946563;28;46668;-62
2023/04/15 07:45:24;;;;;;;;;1.00;1.00;;;;;9.52;80.45;100362.19;4949035;28;45420;-58
2023/04/15 07:47:50;;;;;;;;;1.00;1.00;;;;;9.43;80.74;100375.28;4947711;28;45423;-60
2023/04/15 07:50:16;;;;;;;;;0.75;0.75;;;;;9.39;81.23;100379.50;4951914;28;46272;-61
2023/04/15 07:52:42;;;;;;;;;0.75;0.75;;;;;9.37;81.21;100389.81;4935391;28;46090;-58
2023/04/15 07:55:08;;;;;;;;;1.40;1.40;;;;;9.42;81.87;100402.88;4940375;28;45317;-58
2023/04/15 07:57:34;;;;;;;;;1.25;1.25;;;;;9.28;81.31;100377.41;4936187;28;45384;-57
2023/04/15 08:00:00;;;;;;;;;2.20;1.80;;;;;9.45;82.24;100416.16;4935355;28;45636;-60
2023/04/15 08:02:25;;;;;;;;;1.00;1.00;;;;;9.43;82.50;100404.56;4942466;28;46244;-59
2023/04/15 08:04:52;;;;;;;;;3.00;2.00;;;;;9.42;82.61;100414.69;4954296;28;46078;-57
2023/04/15 08:07:17;;;;;;;;;1.60;1.60;;;;;9.44;82.82;100412.56;4951273;28;45471;-61
2023/04/15 08:09:43;;;;;;;;;1.00;1.00;;;;;9.45;82.43;100425.22;4950775;28;45452;-59
2023/04/15 08:12:11;;;;;;;;;1.25;1.25;;;;;9.26;82.66;100393.19;4973645;28;46574;-58
2023/04/15 08:14:37;;;;;;;;;2.40;1.20;;;;;9.22;82.65;100384.56;4954387;28;45339;-56
2023/04/15 08:17:04;;;;;;;;;1.00;1.00;;;;;9.51;82.41;100442.72;4955804;28;45368;-59
2023/04/15 08:19:29;;;;;;;;;2.80;1.00;;;;;9.45;81.41;100433.44;4942083;28;45530;-58
2023/04/15 08:21:55;;;;;;;;;1.00;1.00;;;;;9.63;81.95;100446.50;4936816;28;46604;-59
2023/04/15 08:24:21;;;;;;;;;1.00;1.00;;;;;9.70;81.09;100453.84;4934706;28;45574;-63
2023/04/15 08:26:47;;;;;;;;;1.00;1.00;;;;;9.69;80.72;100461.22;4965971;28;45473;-62
2023/04/15 08:29:12;;;;;;;;;0.50;0.50;;;;;9.62;80.67;100449.44;4938152;28;46201;-64
2023/04/15 08:31:39;;;;;;;;;2.25;2.25;;;;;9.72;81.02;100473.66;4927360;28;48508;-62
2023/04/15 08:34:04;;;;;;;;;1.00;1.00;;;;;9.70;81.29;100470.28;4949783;28;45407;-61
2023/04/15 08:36:31;;;;;;;;;2.75;2.75;;;;;9.71;80.78;100491.19;4970189;28;45927;-61
2023/04/15 08:38:57;;;;;;;;;1.00;1.00;;;;;9.74;80.84;100496.22;4951913;28;45391;-62
2023/04/15 08:41:24;;;;;;;;;2.00;2.00;;;;;9.74;80.28;100502.56;4926148;28;45586;-63
2023/04/15 08:43:56;;;;;;;;;1.00;1.00;;;;;9.81;80.37;100501.72;4940400;28;45343;-61
2023/04/15 08:46:22;;;;;;;;;0.40;0.40;;;;;9.85;79.76;100514.75;4936097;28;45289;-62
2023/04/15 08:48:48;;;;;;;;;0.75;0.75;;;;;9.92;79.05;100513.91;4935987;28;45566;-62
2023/04/15 08:51:15;;;;;;;;;2.00;1.00;;;;;9.95;79.42;100518.97;4934911;28;46384;-63
2023/04/15 08:53:41;;;;;;;;;0.00;0.00;;;;;10.02;78.61;100517.03;4936019;28;45368;-63
2023/04/15 08:56:07;;;;;;;;;2.60;2.00;;;;;10.15;79.41;100525.25;4939503;28;45640;-61
2023/04/15 08:58:33;;;;;;;;;2.00;2.00;;;;;10.19;78.99;100528.41;4935403;28;45409;-61
2023/04/15 09:00:58;;;;;;;;;3.00;2.00;;;;;10.25;78.38;100533.03;4936569;28;45599;-61
2023/04/15 09:03:24;;;;;;;;;2.00;2.00;;;;;10.01;77.87;100485.19;4919152;28;45404;-61
2023/04/15 09:05:50;;;;;;;;;2.75;2.75;;;;;10.32;77.12;100544.00;4954681;28;45452;-64
2023/04/15 09:08:15;;;;;;;;;1.00;1.00;;;;;10.32;76.76;100546.75;4951833;28;45446;-64
2023/04/15 09:10:41;;;;;;;;;0.25;0.25;;;;;10.25;74.96;100552.22;4975089;28;45679;-61
2023/04/15 09:13:06;;;;;;;;;1.25;1.25;;;;;10.23;75.23;100558.97;4958053;28;45475;-61
2023/04/15 09:15:32;;;;;;;;;0.00;0.00;;;;;10.19;75.13;100566.78;4973862;28;45435;-61
2023/04/15 09:17:58;;;;;;;;;1.00;1.00;;;;;10.16;74.98;100570.81;4976118;28;45516;-59
2023/04/15 09:20:23;;;;;;;;;1.00;1.00;;;;;10.15;75.51;100576.53;4959304;28;46456;-62
2023/04/15 09:22:49;;;;;;;;;2.50;1.00;;;;;10.03;76.51;100581.78;4935033;28;45221;-61
2023/04/15 09:25:15;;;;;;;;;1.00;1.00;;;;;9.93;76.64;100581.41;4941379;28;45594;-59
2023/04/15 09:27:59;;;;;;;;;2.00;1.25;;;;;10.00;76.89;100599.53;4975083;28;45559;-61
2023/04/15 09:30:26;;;;;;;;;1.40;1.40;;;;;9.98;75.88;100598.06;4973375;28;46739;-61
2023/04/15 09:32:53;;;;;;;;;2.00;2.00;;;;;10.04;76.04;100602.69;4936739;28;46648;-62
2023/04/15 09:35:19;;;;;;;;;2.00;2.00;;;;;9.97;75.97;100588.16;4919013;28;45515;-62
2023/04/15 09:37:45;;;;;;;;;5.20;4.40;;;;;10.22;75.58;100612.16;4936093;28;45549;-62
2023/04/15 09:40:11;;;;;;;;;2.25;2.00;;;;;10.27;74.86;100623.34;4925131;28;45546;-62
2023/04/15 09:42:52;;;;;;;;;2.00;2.00;;;;;10.36;74.37;100623.97;4935676;28;45444;-61
2023/04/15 09:45:18;;;;;;;;;2.00;2.00;;;;;10.42;74.83;100615.75;4938493;28;45439;-62
2023/04/15 09:47:44;;;;;;;;;2.50;2.00;;;;;10.65;74.21;100632.78;4934957;28;45478;-62
2023/04/15 09:50:10;;;;;;;;;2.50;1.75;;;;;10.75;74.54;100644.19;4934792;28;46509;-58
2023/04/15 09:52:42;;;;;;;;;2.60;2.60;;;;;10.83;74.04;100651.31;4933744;28;46339;-63
2023/04/15 09:55:08;;;;;;;;;2.80;2.80;;;;;10.84;72.92;100651.09;4918946;28;45501;-62
2023/04/15 09:57:35;;;;;;;;;1.20;1.20;;;;;10.81;72.85;100647.94;4948493;28;45422;-63
2023/04/15 10:00:04;;;;;;;;;3.60;2.60;;;;;10.76;73.72;100628.53;4954003;28;46024;-62
2023/04/15 10:02:30;;;;;;;;;1.40;1.40;;;;;11.06;72.43;100660.97;4953276;28;45344;-61
2023/04/15 10:04:55;;;;;;;;;1.50;1.50;;;;;11.01;71.58;100658.88;4953552;28;45375;-63
2023/04/15 10:07:21;;;;;;;;;1.00;1.00;;;;;10.93;71.26;100639.88;4955637;28;45629;-62
2023/04/15 10:09:48;;;;;;;;;1.00;1.00;;;;;11.18;71.14;100678.47;4948125;28;47425;-62
2023/04/15 10:12:14;;;;;;;;;2.00;2.00;;;;;11.19;70.90;100676.53;4973606;28;45948;-62
2023/04/15 10:14:40;;;;;;;;;6.40;3.00;;;;;11.27;70.19;100687.31;4973202;28;45473;-62
2023/04/15 10:17:05;;;;;;;;;2.00;2.00;;;;;11.32;70.60;100703.97;4974756;28;45375;-62
2023/04/15 10:19:32;;;;;;;;;1.75;1.75;;;;;11.24;69.26;100677.59;4972945;28;45968;-62
2023/04/15 10:21:58;;;;;;;;;1.60;1.60;;;;;11.40;70.15;100708.38;4944033;28;45374;-60
2023/04/15 10:24:24;;;;;;;;;2.00;2.00;;;;;11.46;69.75;100695.66;4909945;28;45434;-58
2023/04/15 10:26:50;;;;;;;;;1.75;1.75;;;;;11.63;68.94;100701.50;4937763;28;45759;-60
2023/04/15 10:29:16;;;;;;;;;1.60;1.60;;;;;11.69;68.12;100714.34;4953594;28;45699;-57
2023/04/15 10:31:42;;;;;;;;;3.00;3.00;;;;;11.65;68.60;100711.19;4953846;28;45375;-61
2023/04/15 10:34:07;;;;;;;;;2.00;1.00;;;;;11.43;68.48;100679.63;4952578;28;45477;-61
2023/04/15 10:36:33;;;;;;;;;2.00;2.00;;;;;11.35;69.25;100678.81;4954925;28;45582;-63
2023/04/15 10:38:58;;;;;;;;;2.00;2.00;;;;;11.70;68.52;100723.47;4953680;28;46412;-62
2023/04/15 10:41:25;;;;;;;;;1.00;1.00;;;;;11.52;67.99;100689.28;4943447;28;45743;-61
2023/04/15 10:44:01;;;;;;;;;3.40;1.80;;;;;11.76;68.37;100730.81;4955974;28;45783;-60
2023/04/15 10:46:40;;;;;;;;;3.00;2.00;;;;;11.80;68.28;100727.41;4957517;28;45645;-62
2023/04/15 10:49:16;;;;;;;;;2.00;2.00;;;;;11.90;67.67;100728.84;4958418;28;45703;-61
2023/04/15 10:51:43;;;;;;;;;1.20;1.20;;;;;11.97;67.29;100732.41;4956884;28;45495;-66
2023/04/15 10:54:13;;;;;;;;;2.20;2.20;;;;;12.10;67.29;100736.97;4957139;28;45372;-60
2023/04/15 10:56:43;;;;;;;;;1.20;1.20;;;;;12.10;66.17;100725.97;4957790;28;45567;-60
2023/04/15 10:59:09;;;;;;;;;4.00;4.00;;;;;12.24;66.94;100737.75;4940624;28;46299;-59
2023/04/15 11:02:11;;;;;;;;;4.00;4.00;;;;;12.33;66.39;100752.06;4938629;28;45461;-61
2023/04/15 11:04:52;;;;;;;;;2.20;2.00;;;;;12.37;66.20;100757.97;4936884;28;45574;-61
2023/04/15 11:07:43;;;;;;;;;1.20;1.00;;;;;12.42;65.17;100758.13;4938635;28;45528;-62
2023/04/15 11:10:20;;;;;;;;;2.00;2.00;;;;;12.35;65.18;100749.94;4951956;28;46432;-59
2023/04/15 11:12:47;;;;;;;;;2.20;1.80;;;;;12.56;65.13;100756.97;4957901;28;45438;-59
2023/04/15 11:15:36;;;;;;;;;2.00;2.00;;;;;12.50;65.03;100773.53;4954844;28;45484;-57
2023/04/15 11:18:12;;;;;;;;;2.00;2.00;;;;;12.38;64.99;100760.47;4958247;28;45529;-61
2023/04/15 11:20:39;;;;;;;;;2.40;2.40;;;;;12.52;64.45;100776.91;4953991;28;46469;-61
2023/04/15 11:23:04;;;;;;;;;3.00;3.00;;;;;12.52;64.10;100766.75;4957852;28;45441;-62
2023/04/15 11:25:32;;;;;;;;;2.75;2.00;;;;;12.64;63.77;100779.78;4943592;28;45343;-60